Terminal Aerodrome Forecast
Issued by NWS

Home | Current Version | Previous Version | Text Only | Print | Product List | Glossary On
Versions: 1 2 3 4 5 6 7 8 9 10 11 12 13 14 15 16 17 18 19 20 21 22 23 24 25 26 27 28 29 30 31 32
692
FTUS46 KLOX 221140
TAFSBA
TAF
KSBA 221140Z 2212/2312 10012KT P6SM -RA BKN040 OVC060
     FM221400 09012G22KT 5SM -RA BR BKN012 OVC025
     FM221700 17020G30KT 1SM +RA BR BKN007 OVC012
     FM222100 25015G25KT 4SM -RA BKN012 OVC025
     FM230300 16012KT P6SM -RA OVC015 PROB30 2304/2308 P6SM -TSRA
      BKN015CB
     FM230800 09011KT P6SM -RA OVC050 PROB30 2308/2312 P6SM -TSRA
      BKN050CB=

USA.gov is the U.S. government's official web portal to all federal, state and local government web resources and services.